Time;durP1;ratioP1;P1;durP2;ratioP2;P2;SDS_P1;SDS_P2;PMS_P1;PMS_P2;Temp;Humidity;BMP_temperature;BMP_pressure;BME280_temperature;BME280_humidity;BME280_pressure;Samples;Min_cycle;Max_cycle;Signal;HPM_P1;HPM_P2
2022/04/24 00:02:59;;;;;;;6.65;3.50;;;;;;;11.29;42.68;98286.88;10303955;28;20113;-76
2022/04/24 00:08:01;;;;;;;6.15;3.55;;;;;;;11.25;42.90;98288.91;10314819;28;20060;-76
2022/04/24 00:13:03;;;;;;;6.43;3.80;;;;;;;11.15;42.79;98285.47;10325663;28;20117;-76
2022/04/24 00:18:05;;;;;;;8.13;3.60;;;;;;;11.11;42.52;98270.19;10343100;28;20459;-76
2022/04/24 00:23:07;;;;;;;5.38;3.88;;;;;;;11.12;42.69;98264.81;10326736;28;20591;-76
2022/04/24 00:28:09;;;;;;;5.10;3.40;;;;;;;11.16;42.76;98260.97;10344571;28;20112;-76
2022/04/24 00:33:11;;;;;;;4.70;3.47;;;;;;;11.04;43.37;98255.97;10332352;28;20140;-76
2022/04/24 00:38:13;;;;;;;4.90;3.75;;;;;;;10.98;43.35;98254.72;10314624;28;20504;-76
2022/04/24 00:43:15;;;;;;;5.55;3.65;;;;;;;10.96;43.66;98240.09;10323619;28;20423;-76
2022/04/24 00:48:17;;;;;;;7.85;3.47;;;;;;;10.91;43.72;98239.69;10331704;28;20145;-76
2022/04/24 00:53:39;;;;;;;5.22;3.85;;;;;;;10.84;43.39;98239.41;10344501;28;20056;-76
2022/04/24 00:58:41;;;;;;;7.85;3.55;;;;;;;10.88;43.64;98232.09;10337857;28;20058;-76
2022/04/24 01:03:42;;;;;;;5.47;3.67;;;;;;;10.85;43.73;98233.19;10341014;28;20058;-76
2022/04/24 01:08:44;;;;;;;5.53;3.80;;;;;;;10.73;43.28;98231.66;10337175;28;20152;-76
2022/04/24 01:13:46;;;;;;;4.80;3.63;;;;;;;10.75;43.10;98232.34;10339228;28;20061;-76
2022/04/24 01:18:48;;;;;;;7.00;3.60;;;;;;;11.00;43.56;98233.63;10338805;28;20050;-76
2022/04/24 01:23:50;;;;;;;5.93;3.80;;;;;;;11.01;43.26;98230.88;10334793;28;20057;-76
2022/04/24 01:28:51;;;;;;;5.75;3.70;;;;;;;11.07;42.77;98232.19;10334124;28;20050;-76
2022/04/24 01:33:53;;;;;;;7.10;4.25;;;;;;;11.06;42.77;98231.34;10308768;28;20540;-76
2022/04/24 01:38:55;;;;;;;7.03;3.85;;;;;;;11.02;43.10;98229.94;10335854;28;20285;-76
2022/04/24 01:43:58;;;;;;;5.57;3.80;;;;;;;10.98;43.10;98235.56;10335760;28;20093;-76
2022/04/24 01:49:00;;;;;;;5.65;3.55;;;;;;;10.91;43.29;98244.94;10335048;28;20512;-76
2022/04/24 01:54:01;;;;;;;4.93;4.00;;;;;;;10.84;42.89;98239.41;10323078;28;20127;-76
2022/04/24 01:59:03;;;;;;;6.90;3.90;;;;;;;10.83;42.85;98237.72;10345694;28;20128;-75
2022/04/24 02:04:05;;;;;;;5.22;3.67;;;;;;;10.78;43.34;98237.31;10346336;28;20054;-76
2022/04/24 02:09:07;;;;;;;6.05;3.80;;;;;;;10.79;43.57;98238.97;10313542;28;20516;-76
2022/04/24 02:14:09;;;;;;;5.85;3.95;;;;;;;10.76;43.66;98234.00;10313804;28;20357;-76
2022/04/24 02:19:10;;;;;;;4.85;3.63;;;;;;;10.79;44.10;98228.50;10312474;28;20530;-76
2022/04/24 02:24:12;;;;;;;6.38;4.40;;;;;;;10.68;44.58;98223.41;10335251;28;20074;-76
2022/04/24 02:29:14;;;;;;;5.97;4.05;;;;;;;10.67;44.47;98221.72;10337406;28;20050;-76
2022/04/24 02:34:16;;;;;;;5.18;3.80;;;;;;;10.71;44.28;98225.72;10338967;28;20062;-76
2022/04/24 02:39:18;;;;;;;6.13;4.10;;;;;;;10.76;43.68;98220.09;10315980;28;20101;-76
2022/04/24 02:44:19;;;;;;;4.75;3.90;;;;;;;10.79;43.84;98219.81;10312347;28;20058;-76
2022/04/24 02:49:21;;;;;;;6.10;3.70;;;;;;;10.82;44.36;98207.31;10335928;28;20065;-76
2022/04/24 02:54:23;;;;;;;7.20;4.00;;;;;;;10.75;44.54;98214.03;10326514;28;20050;-76
2022/04/24 02:59:25;;;;;;;11.15;4.32;;;;;;;10.69;44.40;98211.97;10352364;28;20049;-76
2022/04/24 03:04:27;;;;;;;5.47;4.15;;;;;;;10.80;44.21;98211.88;10349920;28;20107;-76
2022/04/24 03:09:29;;;;;;;5.43;4.10;;;;;;;10.81;44.40;98215.28;10340992;28;20050;-76
2022/04/24 03:14:31;;;;;;;7.18;4.00;;;;;;;10.79;43.89;98206.75;10305950;28;20086;-76
2022/04/24 03:19:33;;;;;;;5.50;3.90;;;;;;;10.82;43.85;98209.09;10312975;28;20402;-76
2022/04/24 03:24:34;;;;;;;5.15;4.13;;;;;;;10.90;43.92;98201.41;10333955;28;20131;-76
2022/04/24 03:29:36;;;;;;;6.88;4.40;;;;;;;10.93;44.65;98209.00;10341473;28;20419;-76
2022/04/24 03:34:38;;;;;;;8.07;4.30;;;;;;;10.95;44.90;98209.69;10313654;28;20085;-76
2022/04/24 03:39:41;;;;;;;7.50;4.43;;;;;;;10.95;45.13;98200.03;10312782;28;20058;-76
2022/04/24 03:44:43;;;;;;;6.78;3.70;;;;;;;10.90;44.93;98209.25;10341059;28;20085;-76
2022/04/24 03:49:45;;;;;;;6.78;3.95;;;;;;;10.86;45.13;98206.09;10342741;28;20246;-76
2022/04/24 03:54:47;;;;;;;6.28;4.40;;;;;;;10.85;45.13;98207.03;10354009;28;20053;-76
2022/04/24 03:59:49;;;;;;;5.90;4.10;;;;;;;10.86;45.00;98213.94;10340965;28;20073;-76
2022/04/24 04:04:51;;;;;;;6.25;4.75;;;;;;;10.90;45.27;98210.09;10321719;28;20139;-76
2022/04/24 04:09:55;;;;;;;5.88;4.57;;;;;;;10.89;45.16;98221.50;10316857;28;20093;-76
2022/04/24 04:14:56;;;;;;;9.57;4.65;;;;;;;10.82;45.07;98217.78;10331644;28;20073;-76
2022/04/24 04:19:59;;;;;;;6.95;4.55;;;;;;;10.69;45.33;98213.75;10351649;28;20077;-76
2022/04/24 04:25:01;;;;;;;5.60;4.90;;;;;;;10.73;45.63;98220.34;10352415;28;20375;-76
2022/04/24 04:30:03;;;;;;;5.53;4.50;;;;;;;10.79;46.04;98218.03;10338372;28;20050;-76
2022/04/24 04:35:05;;;;;;;5.97;4.30;;;;;;;10.85;46.28;98214.88;10334809;28;20183;-76
2022/04/24 04:40:10;;;;;;;5.68;4.03;;;;;;;10.88;46.46;98213.78;10353926;28;20492;-76
2022/04/24 04:45:11;;;;;;;7.47;5.50;;;;;;;10.83;46.85;98221.19;10316645;28;20365;-76
2022/04/24 04:50:13;;;;;;;8.02;5.03;;;;;;;10.82;46.66;98222.19;10346688;28;20077;-76
2022/04/24 04:55:15;;;;;;;6.20;4.68;;;;;;;10.87;45.77;98233.88;10316562;28;20053;-76
2022/04/24 05:00:17;;;;;;;5.80;4.85;;;;;;;10.90;45.70;98238.84;10309990;28;20054;-76
2022/04/24 05:05:19;;;;;;;6.90;5.22;;;;;;;11.06;45.91;98251.44;10325252;28;20378;-76
2022/04/24 05:10:21;;;;;;;6.20;4.75;;;;;;;11.11;46.53;98251.88;10348487;28;20049;-76
2022/04/24 05:15:23;;;;;;;6.28;4.70;;;;;;;11.14;46.77;98277.75;10336406;28;20054;-76
2022/04/24 05:20:24;;;;;;;6.32;5.07;;;;;;;11.13;47.33;98287.38;10324719;28;20050;-76
2022/04/24 05:25:26;;;;;;;5.57;4.68;;;;;;;11.08;47.62;98302.66;10322292;28;20139;-76
2022/04/24 05:30:28;;;;;;;7.25;5.30;;;;;;;11.16;46.32;98302.81;10336944;28;20094;-76
2022/04/24 05:35:33;;;;;;;8.23;5.45;;;;;;;11.19;46.33;98297.31;10308585;28;20381;-76
2022/04/24 05:40:35;;;;;;;10.48;6.18;;;;;;;11.15;46.63;98303.78;10318875;28;20054;-76
2022/04/24 05:45:36;;;;;;;7.32;5.63;;;;;;;11.15;46.45;98309.00;10312188;28;20385;-76
2022/04/24 05:50:38;;;;;;;7.20;5.82;;;;;;;11.11;46.60;98307.63;10329561;28;20050;-76
2022/04/24 05:55:40;;;;;;;7.35;6.00;;;;;;;11.14;45.99;98311.75;10329561;28;20062;-76
2022/04/24 06:00:42;;;;;;;7.88;6.43;;;;;;;11.16;45.68;98312.47;10331719;28;20057;-76
2022/04/24 06:05:47;;;;;;;8.23;6.32;;;;;;;11.30;45.35;98310.28;10337779;28;20488;-76
2022/04/24 06:10:48;;;;;;;10.30;6.53;;;;;;;11.42;44.85;98316.22;10336528;28;20120;-76
2022/04/24 06:15:54;;;;;;;8.27;6.50;;;;;;;11.55;46.27;98308.94;10335669;28;20466;-76
2022/04/24 06:20:56;;;;;;;9.23;6.53;;;;;;;11.88;46.46;98311.16;10335318;28;20578;-76
2022/04/24 06:25:58;;;;;;;9.07;6.70;;;;;;;11.83;45.55;98302.88;10346778;28;20892;-76
2022/04/24 06:31:00;;;;;;;8.50;7.00;;;;;;;11.97;45.30;98305.06;10307274;28;20128;-76
2022/04/24 06:36:02;;;;;;;7.70;6.90;;;;;;;11.87;45.96;98300.78;10324328;28;20053;-76
2022/04/24 06:41:04;;;;;;;8.77;6.97;;;;;;;12.27;45.17;98296.22;10323999;28;20081;-76
2022/04/24 06:46:05;;;;;;;9.68;7.47;;;;;;;12.36;45.90;98282.25;10320307;28;20050;-76
2022/04/24 06:51:07;;;;;;;9.25;7.47;;;;;;;12.56;44.93;98270.72;10326000;28;20492;-76
2022/04/24 06:56:09;;;;;;;9.38;7.63;;;;;;;13.20;44.70;98275.94;10327390;28;20173;-76
2022/04/24 07:01:11;;;;;;;8.57;7.28;;;;;;;13.18;42.80;98277.06;10335084;28;20093;-76
2022/04/24 07:06:12;;;;;;;9.98;7.70;;;;;;;13.16;42.19;98273.75;10345765;28;20053;-76
2022/04/24 07:11:14;;;;;;;10.35;8.18;;;;;;;13.36;42.12;98272.63;10343883;28;20164;-76
2022/04/24 07:16:16;;;;;;;9.30;8.30;;;;;;;13.33;41.96;98271.13;10335904;28;20100;-76
2022/04/24 07:21:18;;;;;;;11.75;8.30;;;;;;;13.62;41.53;98276.19;10327254;28;20162;-76
2022/04/24 07:26:19;;;;;;;9.40;7.63;;;;;;;13.73;40.26;98278.63;10333022;28;20046;-75
2022/04/24 07:31:21;;;;;;;9.02;7.85;;;;;;;13.85;40.17;98266.88;10343708;28;20070;-76
2022/04/24 07:36:23;;;;;;;9.35;7.82;;;;;;;14.40;39.22;98268.25;10314761;28;20053;-76
2022/04/24 07:41:25;;;;;;;9.43;8.32;;;;;;;15.45;37.42;98252.84;10321441;28;20062;-76
2022/04/24 07:46:27;;;;;;;9.07;8.10;;;;;;;15.93;36.68;98249.44;10311187;28;20492;-76
2022/04/24 07:51:29;;;;;;;9.32;7.45;;;;;;;16.46;35.57;98256.81;10305863;28;20076;-76
2022/04/24 07:56:31;;;;;;;9.52;8.10;;;;;;;16.02;36.33;98254.53;10312231;28;20046;-76
2022/04/24 08:01:33;;;;;;;9.13;7.88;;;;;;;16.47;35.62;98247.94;10343254;28;20054;-76
2022/04/24 08:06:35;;;;;;;8.20;7.18;;;;;;;16.88;35.26;98247.59;10309564;28;20495;-77
2022/04/24 08:11:37;;;;;;;8.95;7.22;;;;;;;17.58;34.43;98248.38;10320128;28;20110;-76
2022/04/24 08:16:38;;;;;;;10.30;6.90;;;;;;;17.28;33.89;98253.66;10332732;28;20054;-76
2022/04/24 08:21:40;;;;;;;8.75;7.47;;;;;;;16.95;34.47;98259.13;10343911;28;20081;-76
2022/04/24 08:26:42;;;;;;;12.52;7.10;;;;;;;16.85;34.43;98260.31;10343843;28;20058;-77
2022/04/24 08:31:44;;;;;;;9.65;7.95;;;;;;;16.14;34.75;98257.69;10333981;28;20062;-76
2022/04/24 08:36:46;;;;;;;10.85;7.85;;;;;;;16.30;34.72;98246.28;10326338;28;20050;-76
2022/04/24 08:41:49;;;;;;;8.93;7.30;;;;;;;16.53;34.74;98253.31;10346947;28;20473;-76
2022/04/24 08:46:51;;;;;;;10.13;7.55;;;;;;;16.43;35.38;98257.97;10334371;28;20050;-76
2022/04/24 08:51:53;;;;;;;8.68;7.25;;;;;;;16.47;34.86;98267.19;10326538;28;20089;-76
2022/04/24 08:56:59;;;;;;;8.95;7.72;;;;;;;16.39;34.86;98267.19;10317045;28;20448;-76
2022/04/24 09:02:00;;;;;;;9.57;7.95;;;;;;;17.01;33.89;98262.88;10317071;28;20081;-76
2022/04/24 09:07:05;;;;;;;10.65;8.13;;;;;;;17.30;33.16;98267.53;10326627;28;20101;-76
2022/04/24 09:12:11;;;;;;;10.85;7.97;;;;;;;17.90;32.77;98262.31;10349846;28;20578;-76
2022/04/24 09:17:19;;;;;;;9.63;8.25;;;;;;;17.70;33.49;98265.47;10325128;28;20454;-76
2022/04/24 09:22:22;;;;;;;10.13;8.18;;;;;;;18.17;32.58;98264.41;10333818;28;20085;-76
2022/04/24 09:27:28;;;;;;;10.40;8.20;;;;;;;18.12;32.29;98266.75;10336305;28;20089;-77
2022/04/24 09:32:37;;;;;;;9.40;8.20;;;;;;;18.63;32.61;98266.75;10333055;28;20233;-77
2022/04/24 09:37:45;;;;;;;10.07;8.35;;;;;;;18.49;31.45;98272.06;10326705;28;20053;-77
2022/04/24 09:43:08;;;;;;;10.45;8.50;;;;;;;18.74;30.98;98264.66;10337573;28;20085;-76
2022/04/24 09:48:14;;;;;;;9.80;8.40;;;;;;;18.50;31.28;98273.72;10325923;28;20148;-77
2022/04/24 09:53:21;;;;;;;9.35;7.88;;;;;;;17.38;32.81;98273.63;10327302;28;20057;-76
2022/04/24 09:58:23;;;;;;;8.82;7.75;;;;;;;17.81;33.28;98266.88;10332620;28;20053;-76
2022/04/24 10:03:24;;;;;;;9.30;7.30;;;;;;;17.90;32.33;98270.25;10307569;28;20148;-76
2022/04/24 10:08:26;;;;;;;10.75;7.50;;;;;;;17.50;32.67;98277.50;10334665;28;20049;-76
2022/04/24 10:13:30;;;;;;;8.82;7.18;;;;;;;17.59;32.52;98284.38;10326880;28;20085;-76
2022/04/24 10:19:02;;;;;;;;;;;;;;;18.06;33.70;98286.00;10324104;28;20050;-77
2022/04/24 10:24:10;;;;;;;9.20;6.78;;;;;;;18.36;31.79;98275.31;10336196;28;20307;-76
2022/04/24 10:29:12;;;;;;;8.95;6.43;;;;;;;17.82;31.71;98290.50;10325251;28;20054;-76
2022/04/24 10:34:16;;;;;;;8.13;6.28;;;;;;;17.29;32.15;98287.84;10326252;28;20164;-76
2022/04/24 10:39:19;;;;;;;7.72;6.22;;;;;;;17.71;31.36;98293.53;10309956;28;20394;-76
2022/04/24 10:44:33;;;;;;;7.55;5.97;;;;;;;17.72;31.56;98297.00;10332941;28;20073;-76
2022/04/24 10:49:35;;;;;;;8.25;6.40;;;;;;;17.84;31.68;98285.03;10311399;28;20093;-76
2022/04/24 10:54:39;;;;;;;7.05;6.00;;;;;;;17.75;31.05;98300.13;10323934;28;20583;-76
2022/04/24 10:59:52;;;;;;;10.13;6.20;;;;;;;17.12;31.91;98315.31;10340849;28;20050;-76
2022/04/24 11:05:04;;;;;;;8.88;6.82;;;;;;;16.86;32.12;98306.84;10328066;28;20050;-76
2022/04/24 11:10:10;;;;;;;7.80;6.20;;;;;;;17.22;31.66;98315.94;10312701;28;20510;-76
2022/04/24 11:15:14;;;;;;;7.00;5.57;;;;;;;16.91;32.42;98315.09;10333132;28;20057;-76
2022/04/24 11:20:16;;;;;;;6.65;5.78;;;;;;;17.09;31.86;98318.31;10315980;28;20050;-76
2022/04/24 11:25:22;;;;;;;9.43;6.40;;;;;;;16.98;31.65;98321.31;10342161;28;20151;-76
2022/04/24 11:30:31;;;;;;;7.45;6.38;;;;;;;17.18;31.43;98327.03;10321893;28;20516;-76
2022/04/24 11:35:36;;;;;;;9.33;6.40;;;;;;;16.78;32.13;98328.81;10305483;28;20054;-76
2022/04/24 11:40:46;;;;;;;9.73;5.97;;;;;;;16.73;33.14;98338.25;10345004;28;20461;-76
2022/04/24 11:51:13;;;;;;;9.20;6.47;;;;;;;16.44;32.42;98351.16;10323127;28;20570;-76
2022/04/24 11:56:37;;;;;;;7.78;6.47;;;;;;;15.98;33.12;98356.06;10328246;28;20137;-76
2022/04/24 12:01:40;;;;;;;7.40;6.07;;;;;;;15.77;33.63;98361.00;10338417;28;20054;-76
2022/04/24 12:06:42;;;;;;;7.70;6.60;;;;;;;15.97;33.80;98364.16;10335302;28;20562;-76
2022/04/24 12:11:44;;;;;;;7.80;6.13;;;;;;;15.68;33.71;98369.03;10332785;28;20054;-76
2022/04/24 12:16:48;;;;;;;9.25;6.32;;;;;;;15.96;33.89;98375.66;10325565;28;20055;-76
2022/04/24 12:21:51;;;;;;;6.90;5.95;;;;;;;15.64;34.40;98379.09;10351528;28;20137;-76
2022/04/24 12:26:53;;;;;;;8.50;6.82;;;;;;;15.62;34.39;98377.59;10337019;28;20322;-76
2022/04/24 12:32:06;;;;;;;7.97;7.05;;;;;;;15.40;34.55;98381.63;10336546;28;20112;-77
2022/04/24 12:37:31;;;;;;;8.55;6.90;;;;;;;15.37;35.18;98387.19;10339958;28;20538;-76
2022/04/24 12:42:33;;;;;;;9.95;6.97;;;;;;;15.62;34.63;98388.13;10349574;28;20081;-76
2022/04/24 12:47:35;;;;;;;8.98;6.63;;;;;;;15.75;34.87;98384.06;10343560;28;20054;-76
2022/04/24 12:52:36;;;;;;;10.00;6.55;;;;;;;15.63;35.13;98389.78;10346898;28;20167;-76
2022/04/24 12:57:39;;;;;;;8.27;5.82;;;;;;;15.66;35.02;98387.66;10346169;28;20107;-77
2022/04/24 13:02:42;;;;;;;8.50;6.28;;;;;;;15.81;35.08;98391.31;10319706;28;20524;-77
2022/04/24 13:07:44;;;;;;;8.85;6.20;;;;;;;15.99;35.06;98396.44;10341452;28;20152;-77
2022/04/24 13:12:46;;;;;;;8.75;6.40;;;;;;;15.71;34.72;98393.28;10339901;28;20098;-76
2022/04/24 13:18:07;;;;;;;8.77;6.70;;;;;;;15.64;34.69;98402.81;10313967;28;20509;-77
2022/04/24 13:23:12;;;;;;;6.55;5.45;;;;;;;16.01;34.08;98395.31;10333957;28;20164;-76
2022/04/24 13:28:13;;;;;;;7.28;5.80;;;;;;;16.34;33.42;98385.59;10321363;28;20156;-77
2022/04/24 13:33:16;;;;;;;8.27;5.28;;;;;;;16.52;33.05;98396.84;10325292;28;20066;-77
2022/04/24 13:38:24;;;;;;;10.10;5.30;;;;;;;16.47;32.67;98395.69;10334056;28;20050;-77
2022/04/24 13:43:27;;;;;;;8.02;5.50;;;;;;;16.13;32.93;98401.91;10337403;28;20053;-76
2022/04/24 13:48:30;;;;;;;8.25;5.60;;;;;;;16.04;33.17;98410.78;10321208;28;20046;-77
2022/04/24 13:53:54;;;;;;;6.50;4.93;;;;;;;15.92;32.87;98411.25;10336319;28;20049;-77
2022/04/24 13:58:56;;;;;;;6.20;5.15;;;;;;;15.94;33.41;98411.91;10331330;28;20042;-77
2022/04/24 14:03:58;;;;;;;6.25;4.80;;;;;;;15.94;32.81;98420.66;10325225;28;20093;-77
2022/04/24 14:09:00;;;;;;;7.40;5.13;;;;;;;15.87;32.72;98424.13;10330343;28;20449;-76
2022/04/24 14:14:02;;;;;;;6.20;4.90;;;;;;;15.81;32.42;98425.59;10314465;28;20456;-77
2022/04/24 14:19:04;;;;;;;7.10;5.07;;;;;;;15.81;32.90;98428.22;10335901;28;20460;-77
2022/04/24 14:24:06;;;;;;;6.10;5.03;;;;;;;15.55;33.04;98435.38;10321778;28;20085;-77
2022/04/24 14:29:08;;;;;;;7.10;4.88;;;;;;;15.67;33.37;98439.38;10320518;28;20053;-76
2022/04/24 14:34:10;;;;;;;10.10;4.50;;;;;;;15.75;33.88;98451.75;10336183;28;20062;-77
2022/04/24 14:39:12;;;;;;;10.55;4.90;;;;;;;15.83;33.35;98449.16;10323093;28;20054;-77
2022/04/24 14:44:14;;;;;;;6.95;4.95;;;;;;;15.66;33.72;98457.97;10317856;28;20527;-76
2022/04/24 14:59:58;;;;;;;7.07;4.10;;;;;;;15.27;33.66;98473.41;10317098;28;20156;-76
2022/04/24 15:05:00;;;;;;;10.65;4.43;;;;;;;15.27;33.32;98486.56;10328145;28;20085;-77
2022/04/24 15:10:02;;;;;;;7.20;4.10;;;;;;;15.31;33.47;98499.28;10313061;28;20058;-77
2022/04/24 15:15:06;;;;;;;8.32;4.88;;;;;;;15.38;33.23;98496.84;10326463;28;20462;-77
2022/04/24 15:20:08;;;;;;;8.18;4.30;;;;;;;15.28;33.77;98517.22;10318410;28;20496;-77
2022/04/24 15:25:12;;;;;;;9.63;5.38;;;;;;;15.06;33.84;98517.72;10305816;28;20054;-77
2022/04/24 15:30:14;;;;;;;6.97;5.15;;;;;;;14.89;33.83;98531.75;10331479;28;20061;-77
2022/04/24 15:35:16;;;;;;;7.25;5.50;;;;;;;14.55;35.26;98542.94;10333925;28;20562;-77
2022/04/24 15:40:33;;;;;;;7.57;5.53;;;;;;;14.57;35.99;98543.63;10325863;28;20131;-76
2022/04/24 15:45:34;;;;;;;8.13;5.93;;;;;;;14.83;36.50;98541.06;10321268;28;20162;-76
2022/04/24 15:50:37;;;;;;;7.75;6.18;;;;;;;14.70;35.76;98550.31;10335679;28;20306;-76
2022/04/24 15:55:39;;;;;;;7.47;5.90;;;;;;;14.68;37.04;98549.63;10332499;28;20819;-77
2022/04/24 16:00:42;;;;;;;8.48;6.70;;;;;;;14.45;37.31;98563.22;10343016;28;20140;-76
2022/04/24 16:05:44;;;;;;;8.90;6.80;;;;;;;14.17;37.15;98560.75;10325413;28;20141;-76
2022/04/24 16:10:46;;;;;;;9.60;6.50;;;;;;;14.17;37.69;98571.28;10331845;28;20050;-76
2022/04/24 16:15:48;;;;;;;9.30;6.55;;;;;;;14.36;37.69;98571.16;10326079;28;20104;-76
2022/04/24 16:20:50;;;;;;;9.40;6.82;;;;;;;14.50;37.31;98574.16;10321568;28;20467;-76
2022/04/24 16:25:55;;;;;;;8.45;7.00;;;;;;;14.50;37.19;98574.16;10316814;28;20074;-76
2022/04/24 16:31:01;;;;;;;8.68;7.00;;;;;;;14.88;37.19;98567.75;10335912;28;20053;-76
2022/04/24 16:36:06;;;;;;;8.27;6.75;;;;;;;15.10;36.93;98566.47;10338176;28;20105;-76
2022/04/24 16:41:07;;;;;;;9.18;6.57;;;;;;;15.31;36.48;98561.66;10313738;28;20861;-76
2022/04/24 16:46:09;;;;;;;8.77;6.95;;;;;;;15.68;35.79;98567.53;10303652;28;20062;-76
2022/04/24 17:01:52;;;;;;;8.25;7.25;;;;;;;15.55;36.25;98585.56;10311525;28;20217;-77
2022/04/24 17:06:55;;;;;;;10.85;7.80;;;;;;;15.48;36.72;98586.31;10320485;28;20057;-77
2022/04/24 17:11:57;;;;;;;10.07;7.85;;;;;;;15.28;36.61;98585.69;10313725;28;20050;-77
2022/04/24 17:16:59;;;;;;;9.57;7.32;;;;;;;15.11;37.27;98589.19;10344178;28;20504;-77
2022/04/24 17:22:01;;;;;;;9.55;7.35;;;;;;;14.87;37.39;98594.25;10335198;28;20049;-77
2022/04/24 17:27:04;;;;;;;9.18;7.50;;;;;;;14.81;38.01;98603.56;10327355;28;20061;-77
2022/04/24 17:32:08;;;;;;;8.52;7.32;;;;;;;14.70;37.61;98606.41;10334167;28;20049;-77
2022/04/24 17:37:11;;;;;;;7.90;6.60;;;;;;;14.51;37.94;98607.38;10335287;28;20435;-77
2022/04/24 17:42:13;;;;;;;10.07;7.00;;;;;;;14.34;38.18;98621.28;10325853;28;20046;-77
2022/04/24 17:47:15;;;;;;;7.93;6.28;;;;;;;14.00;38.32;98632.53;10320042;28;20471;-77
2022/04/24 17:52:17;;;;;;;7.90;6.55;;;;;;;13.79;38.79;98632.75;10329319;28;20167;-77
2022/04/24 17:57:19;;;;;;;8.18;6.32;;;;;;;13.76;39.56;98635.63;10332448;28;20058;-77
2022/04/24 18:02:21;;;;;;;7.85;6.28;;;;;;;13.83;39.61;98638.53;10331784;28;20172;-77
2022/04/24 18:07:23;;;;;;;7.97;6.28;;;;;;;13.63;39.67;98648.28;10315718;28;20054;-77
2022/04/24 18:12:27;;;;;;;9.43;6.60;;;;;;;13.30;40.23;98646.91;10317551;28;20056;-77
2022/04/24 18:17:29;;;;;;;9.60;6.82;;;;;;;13.26;40.74;98663.06;10313287;28;20057;-76
2022/04/24 18:22:32;;;;;;;11.05;7.50;;;;;;;13.25;40.82;98667.50;10336652;28;20054;-77
2022/04/24 18:27:35;;;;;;;8.05;6.90;;;;;;;13.27;40.90;98667.38;10341269;28;20100;-77
2022/04/24 18:32:37;;;;;;;8.30;6.82;;;;;;;13.10;41.42;98682.00;10309507;28;20062;-77
2022/04/24 18:37:40;;;;;;;9.65;7.53;;;;;;;13.06;41.18;98692.91;10324109;28;20323;-76
2022/04/24 18:42:43;;;;;;;8.93;7.45;;;;;;;12.80;41.91;98703.13;10316665;28;20059;-77
2022/04/24 18:47:46;;;;;;;9.65;7.38;;;;;;;12.67;42.24;98713.84;10326983;28;20065;-76
2022/04/24 18:52:48;;;;;;;11.18;7.25;;;;;;;12.46;42.68;98720.94;10337720;28;20058;-76
2022/04/24 18:57:50;;;;;;;11.18;7.95;;;;;;;12.37;42.95;98729.63;10338313;28;20546;-76
2022/04/24 19:02:57;;;;;;;12.63;8.68;;;;;;;12.20;43.38;98739.84;10343518;28;20062;-77
2022/04/24 19:08:00;;;;;;;11.60;8.35;;;;;;;11.92;44.14;98743.97;10316739;28;21993;-77
2022/04/24 19:13:03;;;;;;;10.77;8.63;;;;;;;11.96;44.36;98755.84;10331942;28;20537;-76
2022/04/24 19:18:05;;;;;;;11.52;9.00;;;;;;;11.90;44.64;98769.47;10344036;28;20058;-76
2022/04/24 19:23:07;;;;;;;11.23;9.27;;;;;;;11.89;45.15;98773.03;10327893;28;20154;-76
2022/04/24 19:28:08;;;;;;;10.57;9.15;;;;;;;11.95;45.29;98778.59;10317065;28;20078;-80
2022/04/24 19:33:10;;;;;;;11.40;9.93;;;;;;;11.82;45.44;98790.22;10315631;28;20390;-80
2022/04/24 19:38:12;;;;;;;11.52;9.80;;;;;;;11.80;45.58;98787.75;10328855;28;20085;-81
2022/04/24 19:43:15;;;;;;;11.95;9.55;;;;;;;11.80;46.15;98806.09;10328682;28;20564;-81
2022/04/24 19:53:38;;;;;;;12.05;10.10;;;;;;;11.59;46.49;98807.84;10314806;28;20054;-80
2022/04/24 19:58:46;;;;;;;12.30;9.70;;;;;;;11.54;46.59;98819.66;10318622;28;20594;-80
2022/04/24 20:03:48;;;;;;;10.70;9.60;;;;;;;11.39;46.99;98824.31;10326310;28;20168;-81
2022/04/24 20:08:50;;;;;;;11.02;9.38;;;;;;;11.36;47.25;98842.88;10334543;28;20076;-81
2022/04/24 20:13:55;;;;;;;13.25;11.00;;;;;;;11.32;47.30;98852.78;10318555;28;20471;-80
2022/04/24 20:18:57;;;;;;;10.85;9.73;;;;;;;11.22;47.69;98854.47;10310650;28;20140;-81
2022/04/24 20:23:59;;;;;;;13.55;9.35;;;;;;;11.13;48.04;98851.75;10327191;28;20054;-80
2022/04/24 20:29:00;;;;;;;13.00;9.75;;;;;;;11.01;48.40;98848.25;10336520;28;20137;-81
2022/04/24 20:34:02;;;;;;;11.05;9.70;;;;;;;10.98;48.52;98853.75;10327187;28;20261;-81
2022/04/24 20:39:10;;;;;;;13.77;9.98;;;;;;;10.83;48.77;98868.00;10325987;28;20397;-80
2022/04/24 20:44:15;;;;;;;13.68;9.75;;;;;;;10.91;48.88;98867.44;10324000;28;20558;-80
2022/04/24 20:49:17;;;;;;;17.55;11.00;;;;;;;10.83;49.17;98870.63;10316127;28;20050;-81
2022/04/24 20:54:19;;;;;;;11.70;9.88;;;;;;;10.88;49.13;98862.44;10339275;28;20085;-81
2022/04/24 20:59:21;;;;;;;11.60;10.40;;;;;;;10.85;49.39;98860.88;10328127;28;20162;-80
2022/04/24 21:04:22;;;;;;;12.30;11.07;;;;;;;10.64;49.63;98869.56;10321358;28;20094;-80
2022/04/24 21:09:25;;;;;;;12.38;10.88;;;;;;;10.43;50.42;98872.03;10321471;28;20134;-80
2022/04/24 21:14:27;;;;;;;12.20;10.80;;;;;;;10.46;50.95;98871.81;10334722;28;20172;-80
2022/04/24 21:19:49;;;;;;;12.23;10.23;;;;;;;10.67;50.37;98879.75;10324562;28;20500;-80
2022/04/24 21:24:51;;;;;;;12.30;10.18;;;;;;;10.74;50.24;98884.44;10325042;28;20112;-80
2022/04/24 21:29:52;;;;;;;12.10;9.73;;;;;;;10.77;50.32;98892.03;10329336;28;20181;-80
2022/04/24 21:34:54;;;;;;;12.43;9.65;;;;;;;10.80;50.37;98898.81;10326125;28;20054;-80
2022/04/24 21:39:56;;;;;;;10.82;9.73;;;;;;;10.80;50.42;98904.03;10326272;28;20144;-80
2022/04/24 21:44:58;;;;;;;11.50;9.63;;;;;;;10.77;50.59;98902.47;10341185;28;20082;-80
2022/04/24 21:49:59;;;;;;;13.65;9.70;;;;;;;10.81;50.65;98905.69;10325695;28;20071;-81
2022/04/24 21:55:02;;;;;;;10.45;9.35;;;;;;;10.85;50.44;98912.34;10333727;28;20405;-80
2022/04/24 22:00:07;;;;;;;12.10;10.25;;;;;;;10.94;50.35;98909.03;10327335;28;20082;-80
2022/04/24 22:05:09;;;;;;;10.82;9.55;;;;;;;10.76;50.63;98921.75;10344300;28;20108;-79
2022/04/24 22:10:11;;;;;;;10.55;9.43;;;;;;;10.85;50.82;98921.03;10313023;28;20665;-80
2022/04/24 22:15:14;;;;;;;12.88;9.90;;;;;;;10.90;50.81;98918.91;10324890;28;20502;-80
2022/04/24 22:20:16;;;;;;;12.88;10.20;;;;;;;10.80;51.05;98923.19;10328247;28;20076;-80
2022/04/24 22:25:17;;;;;;;10.25;9.25;;;;;;;10.69;51.56;98925.78;10328488;28;20058;-80
2022/04/24 22:30:20;;;;;;;11.27;9.40;;;;;;;10.78;51.32;98926.88;10323836;28;20050;-80
2022/04/24 22:35:21;;;;;;;10.70;9.57;;;;;;;10.80;51.35;98933.66;10318832;28;20058;-81
2022/04/24 22:40:24;;;;;;;12.13;10.07;;;;;;;10.77;51.34;98939.09;10309222;28;20050;-80
2022/04/24 22:45:25;;;;;;;11.50;9.50;;;;;;;10.80;51.44;98932.81;10325208;28;20061;-80
2022/04/24 22:50:27;;;;;;;10.43;9.15;;;;;;;10.87;51.15;98941.84;10318113;28;20089;-80
2022/04/24 22:55:29;;;;;;;10.65;9.35;;;;;;;10.87;52.01;98940.06;10328402;28;20046;-80
2022/04/24 23:00:31;;;;;;;12.60;10.68;;;;;;;10.86;52.29;98938.41;10320193;28;20504;-80
2022/04/24 23:05:33;;;;;;;11.68;10.30;;;;;;;10.82;52.56;98946.59;10307663;28;20609;-80
2022/04/24 23:10:35;;;;;;;11.82;9.98;;;;;;;10.78;52.67;98951.25;10328866;28;20108;-80
2022/04/24 23:15:37;;;;;;;12.32;11.02;;;;;;;10.70;52.92;98947.53;10317155;28;20416;-80
2022/04/24 23:20:39;;;;;;;12.93;11.52;;;;;;;10.47;54.37;98944.03;10351576;28;20213;-80
2022/04/24 23:25:41;;;;;;;11.50;10.35;;;;;;;10.55;54.34;98954.75;10327839;28;20054;-80
2022/04/24 23:30:44;;;;;;;12.43;11.10;;;;;;;10.46;54.16;98952.84;10319726;28;20054;-80
2022/04/24 23:35:46;;;;;;;12.48;10.75;;;;;;;10.45;54.21;98965.06;10341874;28;20049;-80
2022/04/24 23:40:48;;;;;;;14.23;11.35;;;;;;;10.56;54.45;98964.28;10309985;28;20469;-80
2022/04/24 23:45:50;;;;;;;11.85;10.65;;;;;;;10.57;54.03;98958.09;10322368;28;20104;-80
2022/04/24 23:50:52;;;;;;;12.27;11.07;;;;;;;10.43;54.76;98966.13;10311305;28;20050;-80
2022/04/24 23:55:53;;;;;;;12.43;11.13;;;;;;;10.33;55.00;98965.97;10328443;28;20050;-81
